Wrangell, AK

5:16 PM AKST on February 06, 2016 (GMT -0900)
Wrangell

Weather History for PAWG - October, 2012

Change the Weather History Date:

Wednesday, October 31, 2012

  Actual Average Record
Temperature  
Mean Temperature 30 °F -  
Max Temperature 35 °F 45 °F 67 °F (1970)
Min Temperature 24 °F 35 °F 18 °F (1984)
Degree Days  
Heating Degree Days 36    
Moisture  
Dew Point 16 °F    
Average Humidity 60    
Maximum Humidity 69    
Minimum Humidity 44    
Precipitation  
Precipitation 0.00 in - - ()
Sea Level Pressure  
Sea Level Pressure 29.80 in    
Wind  
Wind Speed 3 mph (South)    
Max Wind Speed 7 mph    
Max Gust Speed -    
Visibility 10 miles    
Events      
Averages and records for this station are not official NWS values.
T = Trace of Precipitation, MM = Missing Value Source: NWS Daily Summary

Daily Weather History Graph

Daily Weather History Graph

Search for Another Location

Airport or City:

Trip Planner

Search our weather history database for the weather conditions in past years. The results will help you decide how hot, cold, wet, or windy it might be!

Date:

Astronomy

Oct. 31, 2012 Rise Set
Actual Time 7:57 AM AKDT 5:07 PM AKDT
Civil Twilight 7:17 AM AKDT 5:47 PM AKDT
Nautical Twilight 6:32 AM AKDT 6:32 PM AKDT
Astronomical Twilight 5:48 AM AKDT 7:16 PM AKDT
Moon 5:59 PM AKDT (10/31) 10:08 AM AKDT (10/31)
Length of Visible Light 10h 30m
Length of Day
9h 10m
Waning Gibbous, 96% of the Moon is Illuminated
Oct 31
Waning Gibbous
Nov 6
Last Quarter
Nov 13
New
Nov 20
First Quarter
Nov 28
Full

Hourly Weather History & Observations

Time (AKDT) Temp. Windchill Dew Point Humidity Pressure Visibility Wind Dir Wind Speed Gust Speed Precip Events Conditions
12:16 AM 24.8 °F 20.5 °F 12.2 °F 59% 29.89 in 10.0 mi South 3.5 mph - N/A   Clear
12:36 AM 26.6 °F 21.2 °F 12.2 °F 55% 29.88 in 10.0 mi SSE 4.6 mph - N/A   Clear
12:56 AM 26.6 °F 22.6 °F 14.0 °F 59% 29.88 in 10.0 mi South 3.5 mph - N/A   Clear
1:16 AM 26.6 °F 22.6 °F 14.0 °F 59% 29.87 in 10.0 mi South 3.5 mph - N/A   Clear
1:36 AM 26.6 °F 21.2 °F 14.0 °F 59% 29.86 in 10.0 mi SSE 4.6 mph - N/A   Clear
1:56 AM 24.8 °F 19.1 °F 12.2 °F 59% 29.85 in 10.0 mi SSE 4.6 mph - N/A   Clear
2:16 AM 24.8 °F 19.1 °F 14.0 °F 64% 29.85 in 10.0 mi SSE 4.6 mph - N/A   Clear
2:36 AM 24.8 °F 19.1 °F 14.0 °F 64% 29.84 in 10.0 mi SSE 4.6 mph - N/A   Clear
2:56 AM 24.8 °F 20.5 °F 12.2 °F 59% 29.83 in 10.0 mi South 3.5 mph - N/A   Clear
3:16 AM 24.8 °F 19.1 °F 14.0 °F 64% 29.83 in 10.0 mi SSE 4.6 mph - N/A   Clear
3:36 AM 24.8 °F 19.1 °F 14.0 °F 64% 29.82 in 10.0 mi SSE 4.6 mph - N/A   Clear
3:56 AM 24.8 °F 17.9 °F 14.0 °F 64% 29.82 in 10.0 mi SSE 5.8 mph - N/A   Clear
4:16 AM 24.8 °F 19.1 °F 15.8 °F 69% 29.82 in 10.0 mi SSE 4.6 mph - N/A   Clear
4:36 AM 24.8 °F 17.9 °F 15.8 °F 69% 29.82 in 10.0 mi SSE 5.8 mph - N/A   Clear
4:56 AM 24.8 °F 17.9 °F 15.8 °F 69% 29.82 in 10.0 mi SSE 5.8 mph - N/A   Clear
5:16 AM 24.8 °F 16.9 °F 15.8 °F 69% 29.82 in 10.0 mi SSE 6.9 mph - N/A   Clear
5:36 AM 24.8 °F 17.9 °F 14.0 °F 64% 29.82 in 10.0 mi SSE 5.8 mph - N/A   Clear
5:56 AM 24.8 °F 17.9 °F 14.0 °F 64% 29.82 in 10.0 mi SSE 5.8 mph - N/A   Clear
6:16 AM 24.8 °F 17.9 °F 15.8 °F 69% 29.82 in 10.0 mi SSE 5.8 mph - N/A   Clear
6:36 AM 24.8 °F 16.9 °F 15.8 °F 69% 29.82 in 10.0 mi SSE 6.9 mph - N/A   Clear
6:56 AM 24.8 °F 16.9 °F 15.8 °F 69% 29.82 in 10.0 mi SE 6.9 mph - N/A   Clear
7:16 AM 24.8 °F 16.9 °F 14.0 °F 64% 29.82 in 10.0 mi SSE 6.9 mph - N/A   Clear
7:36 AM 24.8 °F 19.1 °F 15.8 °F 69% 29.81 in 10.0 mi SE 4.6 mph - N/A   Clear
7:56 AM 24.8 °F 19.1 °F 15.8 °F 69% 29.81 in 10.0 mi SSE 4.6 mph - N/A   Clear
8:16 AM 24.8 °F 19.1 °F 14.0 °F 64% 29.82 in 10.0 mi SSE 4.6 mph - N/A   Clear
8:36 AM 24.8 °F 20.5 °F 15.8 °F 69% 29.81 in 10.0 mi SSE 3.5 mph - N/A   Clear
8:56 AM 26.6 °F 22.6 °F 15.8 °F 64% 29.81 in 10.0 mi SSE 3.5 mph - N/A   Clear
9:16 AM 26.6 °F - 17.6 °F 69% 29.80 in 10.0 mi Calm Calm - N/A   Clear
9:36 AM 26.6 °F - 17.6 °F 69% 29.80 in 10.0 mi Calm Calm - N/A   Clear
9:56 AM 28.4 °F - 17.6 °F 64% 29.80 in 10.0 mi Calm Calm - N/A   Clear
10:16 AM 28.4 °F - 17.6 °F 64% 29.80 in 10.0 mi Calm Calm - N/A   Clear
10:36 AM 28.4 °F 24.6 °F 17.6 °F 64% 29.80 in 10.0 mi WNW 3.5 mph - N/A   Clear
10:56 AM 30.2 °F - 17.6 °F 60% 29.80 in 10.0 mi Calm Calm - N/A   Clear
11:16 AM 30.2 °F - 17.6 °F 60% 29.79 in 10.0 mi Calm Calm - N/A   Clear
11:36 AM 30.2 °F - 19.4 °F 64% 29.79 in 10.0 mi Calm Calm - N/A   Clear
11:56 AM 30.2 °F 24.3 °F 17.6 °F 60% 29.79 in 10.0 mi NW 5.8 mph - N/A   Clear
12:16 PM 30.2 °F - 17.6 °F 60% 29.78 in 10.0 mi Calm Calm - N/A   Clear
12:36 PM 32.0 °F - 17.6 °F 55% 29.78 in 10.0 mi Calm Calm - N/A   Clear
12:56 PM 32.0 °F 28.7 °F 17.6 °F 55% 29.78 in 10.0 mi NNW 3.5 mph - N/A   Clear
1:16 PM 32.0 °F - 17.6 °F 55% 29.78 in 10.0 mi Calm Calm - N/A   Clear
1:36 PM 33.8 °F - 17.6 °F 52% 29.77 in 10.0 mi Calm Calm - N/A   Clear
1:56 PM 33.8 °F - 17.6 °F 52% 29.77 in 10.0 mi Calm Calm - N/A   Clear
2:16 PM 33.8 °F - 17.6 °F 52% 29.77 in 10.0 mi Calm Calm - N/A   Clear
2:36 PM 33.8 °F 29.6 °F 17.6 °F 52% 29.77 in 10.0 mi WNW 4.6 mph - N/A   Clear
2:56 PM 33.8 °F 30.8 °F 17.6 °F 52% 29.76 in 10.0 mi NW 3.5 mph - N/A   Mostly Cloudy
3:16 PM 33.8 °F - 17.6 °F 52% 29.76 in 7.0 mi Calm Calm - N/A   Mostly Cloudy
3:36 PM 35.6 °F - 15.8 °F 44% 29.76 in 7.0 mi Calm Calm - N/A   Mostly Cloudy
3:56 PM 35.6 °F - 17.6 °F 48% 29.76 in 10.0 mi Calm Calm - N/A   Mostly Cloudy
4:16 PM 33.8 °F - 17.6 °F 52% 29.75 in 10.0 mi Calm Calm - N/A   Mostly Cloudy
4:36 PM 33.8 °F 28.6 °F 17.6 °F 52% 29.76 in 10.0 mi NNW 5.8 mph - N/A   Mostly Cloudy
4:56 PM 33.8 °F 30.8 °F 17.6 °F 52% 29.75 in 10.0 mi NNW 3.5 mph - N/A   Mostly Cloudy
5:16 PM 30.2 °F - 15.8 °F 55% 29.75 in 10.0 mi Calm Calm - N/A   Mostly Cloudy
5:36 PM 30.2 °F 26.7 °F 15.8 °F 55% 29.76 in 10.0 mi NNW 3.5 mph - N/A   Mostly Cloudy
5:56 PM 33.8 °F - 17.6 °F 52% 29.76 in 10.0 mi Calm Calm - N/A   Scattered Clouds
6:16 PM 32.0 °F - 17.6 °F 55% 29.75 in 10.0 mi Calm Calm - N/A   Scattered Clouds
6:36 PM 32.0 °F - 17.6 °F 55% 29.75 in 10.0 mi Calm Calm - N/A   Scattered Clouds
6:56 PM 28.4 °F - 15.8 °F 59% 29.75 in 10.0 mi Calm Calm - N/A   Clear
7:16 PM 30.2 °F - 17.6 °F 60% 29.76 in 10.0 mi Calm Calm - N/A   Clear
7:36 PM 30.2 °F 26.7 °F 15.8 °F 55% 29.76 in 10.0 mi WNW 3.5 mph - N/A   Clear
7:56 PM 28.4 °F 23.3 °F 15.8 °F 59% 29.76 in 10.0 mi WNW 4.6 mph - N/A   Clear
8:16 PM 30.2 °F - 15.8 °F 55% 29.77 in 10.0 mi Calm Calm - N/A   Clear
8:36 PM 30.2 °F 25.4 °F 15.8 °F 55% 29.78 in 10.0 mi WNW 4.6 mph - N/A   Clear
8:56 PM 30.2 °F - 15.8 °F 55% 29.78 in 10.0 mi Calm Calm - N/A   Clear
9:16 PM 28.4 °F - 14.0 °F 55% 29.77 in 10.0 mi Calm Calm - N/A   Clear
9:36 PM 28.4 °F 24.6 °F 15.8 °F 59% 29.77 in 10.0 mi NW 3.5 mph - N/A   Clear
9:56 PM 28.4 °F - 15.8 °F 59% 29.78 in 10.0 mi Calm Calm - N/A   Clear
10:16 PM 28.4 °F - 15.8 °F 59% 29.78 in 10.0 mi Calm Calm - N/A   Clear
10:36 PM 28.4 °F - 15.8 °F 59% 29.78 in 10.0 mi Calm Calm - N/A   Clear
10:56 PM 30.2 °F 26.7 °F 15.8 °F 55% 29.79 in 10.0 mi North 3.5 mph - N/A   Clear
11:16 PM 28.4 °F - 15.8 °F 59% 29.79 in 10.0 mi Calm Calm - N/A   Clear
11:36 PM 28.4 °F - 15.8 °F 59% 29.79 in 10.0 mi Calm Calm - N/A   Clear
11:56 PM 30.2 °F - 17.6 °F 60% 29.79 in 10.0 mi Calm Calm - N/A   Clear